sensor_id;sensor_type;location;lat;lon;timestamp;temperature;humidity
25112;DHT22;13092;51.996;4.458;2022-12-07T00:00:33;6.20;99.90
25112;DHT22;13092;51.996;4.458;2022-12-07T00:03:02;6.30;99.90
25112;DHT22;13092;51.996;4.458;2022-12-07T00:05:45;6.40;99.90
25112;DHT22;13092;51.996;4.458;2022-12-07T00:08:20;6.40;99.90
25112;DHT22;13092;51.996;4.458;2022-12-07T00:10:53;6.60;99.90
25112;DHT22;13092;51.996;4.458;2022-12-07T00:13:25;6.60;99.90
25112;DHT22;13092;51.996;4.458;2022-12-07T00:16:02;6.70;99.90
25112;DHT22;13092;51.996;4.458;2022-12-07T00:18:34;6.70;99.90
25112;DHT22;13092;51.996;4.458;2022-12-07T00:21:07;6.70;99.90
25112;DHT22;13092;51.996;4.458;2022-12-07T00:23:39;6.70;99.90
25112;DHT22;13092;51.996;4.458;2022-12-07T00:26:10;6.70;99.90
25112;DHT22;13092;51.996;4.458;2022-12-07T00:28:41;6.70;99.90
25112;DHT22;13092;51.996;4.458;2022-12-07T00:31:19;6.60;99.90
25112;DHT22;13092;51.996;4.458;2022-12-07T00:33:53;6.60;99.90
25112;DHT22;13092;51.996;4.458;2022-12-07T00:36:49;6.60;99.90
25112;DHT22;13092;51.996;4.458;2022-12-07T00:39:20;6.50;99.90
25112;DHT22;13092;51.996;4.458;2022-12-07T00:41:51;6.50;99.90
25112;DHT22;13092;51.996;4.458;2022-12-07T00:44:34;6.40;99.90
25112;DHT22;13092;51.996;4.458;2022-12-07T00:47:13;6.30;99.90
25112;DHT22;13092;51.996;4.458;2022-12-07T00:49:51;6.00;99.90
25112;DHT22;13092;51.996;4.458;2022-12-07T00:52:33;6.10;99.90
25112;DHT22;13092;51.996;4.458;2022-12-07T00:55:15;6.00;99.90
25112;DHT22;13092;51.996;4.458;2022-12-07T00:57:49;5.90;99.90
25112;DHT22;13092;51.996;4.458;2022-12-07T01:00:29;5.80;99.90
25112;DHT22;13092;51.996;4.458;2022-12-07T01:03:16;5.90;99.90
25112;DHT22;13092;51.996;4.458;2022-12-07T01:05:56;5.60;99.90
25112;DHT22;13092;51.996;4.458;2022-12-07T01:08:39;5.60;99.90
25112;DHT22;13092;51.996;4.458;2022-12-07T01:11:19;5.50;99.90
25112;DHT22;13092;51.996;4.458;2022-12-07T01:13:56;5.60;99.90
25112;DHT22;13092;51.996;4.458;2022-12-07T01:16:29;5.60;99.90
25112;DHT22;13092;51.996;4.458;2022-12-07T01:19:02;5.60;99.90
25112;DHT22;13092;51.996;4.458;2022-12-07T01:21:34;5.60;99.90
25112;DHT22;13092;51.996;4.458;2022-12-07T01:24:10;5.60;99.90
25112;DHT22;13092;51.996;4.458;2022-12-07T01:26:58;5.60;99.90
25112;DHT22;13092;51.996;4.458;2022-12-07T01:29:28;5.50;99.90
25112;DHT22;13092;51.996;4.458;2022-12-07T01:32:04;5.50;99.90
25112;DHT22;13092;51.996;4.458;2022-12-07T01:34:38;5.50;99.90
25112;DHT22;13092;51.996;4.458;2022-12-07T01:37:35;5.30;99.90
25112;DHT22;13092;51.996;4.458;2022-12-07T01:40:21;5.20;99.90
25112;DHT22;13092;51.996;4.458;2022-12-07T01:42:50;5.20;99.90
25112;DHT22;13092;51.996;4.458;2022-12-07T01:45:39;5.20;99.90
25112;DHT22;13092;51.996;4.458;2022-12-07T01:48:10;5.10;99.90
25112;DHT22;13092;51.996;4.458;2022-12-07T01:50:51;4.90;99.90
25112;DHT22;13092;51.996;4.458;2022-12-07T01:53:24;5.20;99.90
25112;DHT22;13092;51.996;4.458;2022-12-07T01:55:56;5.30;99.90
25112;DHT22;13092;51.996;4.458;2022-12-07T01:58:25;5.40;99.90
25112;DHT22;13092;51.996;4.458;2022-12-07T02:00:53;5.60;99.90
25112;DHT22;13092;51.996;4.458;2022-12-07T02:03:27;5.70;99.90
25112;DHT22;13092;51.996;4.458;2022-12-07T02:05:59;5.70;99.90
25112;DHT22;13092;51.996;4.458;2022-12-07T02:08:27;5.70;99.90
25112;DHT22;13092;51.996;4.458;2022-12-07T02:10:57;5.80;99.90
25112;DHT22;13092;51.996;4.458;2022-12-07T02:13:28;5.80;99.90
25112;DHT22;13092;51.996;4.458;2022-12-07T02:16:13;5.80;99.90
25112;DHT22;13092;51.996;4.458;2022-12-07T02:18:56;5.80;99.90
25112;DHT22;13092;51.996;4.458;2022-12-07T02:21:32;5.80;99.90
25112;DHT22;13092;51.996;4.458;2022-12-07T02:24:15;5.60;99.90
25112;DHT22;13092;51.996;4.458;2022-12-07T02:27:11;5.60;99.90
25112;DHT22;13092;51.996;4.458;2022-12-07T02:29:51;5.50;99.90
25112;DHT22;13092;51.996;4.458;2022-12-07T02:32:28;5.50;99.90
25112;DHT22;13092;51.996;4.458;2022-12-07T02:35:06;5.30;99.90
25112;DHT22;13092;51.996;4.458;2022-12-07T02:37:37;5.40;99.90
25112;DHT22;13092;51.996;4.458;2022-12-07T02:40:10;5.40;99.90
25112;DHT22;13092;51.996;4.458;2022-12-07T02:42:44;5.40;99.90
25112;DHT22;13092;51.996;4.458;2022-12-07T02:45:18;5.40;99.90
25112;DHT22;13092;51.996;4.458;2022-12-07T02:47:50;5.50;99.90
25112;DHT22;13092;51.996;4.458;2022-12-07T02:50:22;5.50;99.90
25112;DHT22;13092;51.996;4.458;2022-12-07T02:52:50;5.40;99.90
25112;DHT22;13092;51.996;4.458;2022-12-07T02:55:23;5.50;99.90
25112;DHT22;13092;51.996;4.458;2022-12-07T02:58:20;5.50;99.90
25112;DHT22;13092;51.996;4.458;2022-12-07T03:01:03;5.50;99.90
25112;DHT22;13092;51.996;4.458;2022-12-07T03:03:35;5.40;99.90
25112;DHT22;13092;51.996;4.458;2022-12-07T03:06:13;5.40;99.90
25112;DHT22;13092;51.996;4.458;2022-12-07T03:08:51;5.30;99.90
25112;DHT22;13092;51.996;4.458;2022-12-07T03:11:27;5.40;99.90
25112;DHT22;13092;51.996;4.458;2022-12-07T03:14:01;5.40;99.90
25112;DHT22;13092;51.996;4.458;2022-12-07T03:16:36;5.60;99.90
25112;DHT22;13092;51.996;4.458;2022-12-07T03:19:08;5.60;99.90
25112;DHT22;13092;51.996;4.458;2022-12-07T03:21:39;5.80;99.90
25112;DHT22;13092;51.996;4.458;2022-12-07T03:24:11;5.70;99.90
25112;DHT22;13092;51.996;4.458;2022-12-07T03:26:46;5.90;99.90
25112;DHT22;13092;51.996;4.458;2022-12-07T03:29:30;5.90;99.90
25112;DHT22;13092;51.996;4.458;2022-12-07T03:32:15;5.90;99.90
25112;DHT22;13092;51.996;4.458;2022-12-07T03:34:51;5.90;99.90
25112;DHT22;13092;51.996;4.458;2022-12-07T03:37:26;6.00;99.90
25112;DHT22;13092;51.996;4.458;2022-12-07T03:40:06;6.10;99.90
25112;DHT22;13092;51.996;4.458;2022-12-07T03:42:35;6.20;99.90
25112;DHT22;13092;51.996;4.458;2022-12-07T03:45:04;6.10;99.90
25112;DHT22;13092;51.996;4.458;2022-12-07T03:47:43;6.20;99.90
25112;DHT22;13092;51.996;4.458;2022-12-07T03:50:21;6.20;99.90
25112;DHT22;13092;51.996;4.458;2022-12-07T03:52:53;6.20;99.90
25112;DHT22;13092;51.996;4.458;2022-12-07T03:55:26;6.20;99.90
25112;DHT22;13092;51.996;4.458;2022-12-07T03:57:59;6.20;99.90
25112;DHT22;13092;51.996;4.458;2022-12-07T04:00:32;6.10;99.90
25112;DHT22;13092;51.996;4.458;2022-12-07T04:03:03;6.10;99.90
25112;DHT22;13092;51.996;4.458;2022-12-07T04:05:32;6.00;99.90
25112;DHT22;13092;51.996;4.458;2022-12-07T04:08:01;6.20;99.90
25112;DHT22;13092;51.996;4.458;2022-12-07T04:10:29;6.10;99.90
25112;DHT22;13092;51.996;4.458;2022-12-07T04:12:58;6.10;99.90
25112;DHT22;13092;51.996;4.458;2022-12-07T04:15:27;6.00;99.90
25112;DHT22;13092;51.996;4.458;2022-12-07T04:17:58;6.10;99.90
25112;DHT22;13092;51.996;4.458;2022-12-07T04:20:28;6.00;99.90
25112;DHT22;13092;51.996;4.458;2022-12-07T04:22:57;6.00;99.90
25112;DHT22;13092;51.996;4.458;2022-12-07T04:25:26;6.00;99.90
25112;DHT22;13092;51.996;4.458;2022-12-07T04:27:55;6.00;99.90
25112;DHT22;13092;51.996;4.458;2022-12-07T04:30:24;6.00;99.90
25112;DHT22;13092;51.996;4.458;2022-12-07T04:32:52;6.10;99.90
25112;DHT22;13092;51.996;4.458;2022-12-07T04:35:24;5.80;99.90
25112;DHT22;13092;51.996;4.458;2022-12-07T04:37:57;5.80;99.90
25112;DHT22;13092;51.996;4.458;2022-12-07T04:40:26;5.70;99.90
25112;DHT22;13092;51.996;4.458;2022-12-07T04:42:57;5.60;99.90
25112;DHT22;13092;51.996;4.458;2022-12-07T04:45:25;5.60;99.90
25112;DHT22;13092;51.996;4.458;2022-12-07T04:47:57;5.60;99.90
25112;DHT22;13092;51.996;4.458;2022-12-07T04:50:27;5.40;99.90
25112;DHT22;13092;51.996;4.458;2022-12-07T04:52:57;5.40;99.90
25112;DHT22;13092;51.996;4.458;2022-12-07T04:55:25;5.60;99.90
25112;DHT22;13092;51.996;4.458;2022-12-07T04:57:56;5.40;99.90
25112;DHT22;13092;51.996;4.458;2022-12-07T05:00:25;5.30;99.90
25112;DHT22;13092;51.996;4.458;2022-12-07T05:02:56;5.20;99.90
25112;DHT22;13092;51.996;4.458;2022-12-07T05:05:33;5.10;99.90
25112;DHT22;13092;51.996;4.458;2022-12-07T05:08:04;5.10;99.90
25112;DHT22;13092;51.996;4.458;2022-12-07T05:10:33;5.00;99.90
25112;DHT22;13092;51.996;4.458;2022-12-07T05:13:05;5.00;99.90
25112;DHT22;13092;51.996;4.458;2022-12-07T05:15:35;4.80;99.90
25112;DHT22;13092;51.996;4.458;2022-12-07T05:18:08;4.80;99.90
25112;DHT22;13092;51.996;4.458;2022-12-07T05:20:36;4.80;99.90
25112;DHT22;13092;51.996;4.458;2022-12-07T05:23:10;4.80;99.90
25112;DHT22;13092;51.996;4.458;2022-12-07T05:25:39;4.90;99.90
25112;DHT22;13092;51.996;4.458;2022-12-07T05:28:07;4.70;99.90
25112;DHT22;13092;51.996;4.458;2022-12-07T05:30:37;4.70;99.90
25112;DHT22;13092;51.996;4.458;2022-12-07T05:33:06;4.70;99.90
25112;DHT22;13092;51.996;4.458;2022-12-07T05:35:34;4.60;99.90
25112;DHT22;13092;51.996;4.458;2022-12-07T05:38:04;4.60;99.90
25112;DHT22;13092;51.996;4.458;2022-12-07T05:40:34;4.60;99.90
25112;DHT22;13092;51.996;4.458;2022-12-07T05:43:04;4.60;99.90
25112;DHT22;13092;51.996;4.458;2022-12-07T05:45:32;4.60;99.90
25112;DHT22;13092;51.996;4.458;2022-12-07T05:48:01;4.90;99.90
25112;DHT22;13092;51.996;4.458;2022-12-07T05:50:32;4.60;99.90
25112;DHT22;13092;51.996;4.458;2022-12-07T05:53:00;4.60;99.90
25112;DHT22;13092;51.996;4.458;2022-12-07T05:55:29;4.40;99.90
25112;DHT22;13092;51.996;4.458;2022-12-07T05:57:59;4.50;99.90
25112;DHT22;13092;51.996;4.458;2022-12-07T06:00:44;4.40;99.90
25112;DHT22;13092;51.996;4.458;2022-12-07T06:03:17;4.40;99.90
25112;DHT22;13092;51.996;4.458;2022-12-07T06:05:45;4.50;99.90
25112;DHT22;13092;51.996;4.458;2022-12-07T06:08:14;4.40;99.90
25112;DHT22;13092;51.996;4.458;2022-12-07T06:10:43;4.30;99.90
25112;DHT22;13092;51.996;4.458;2022-12-07T06:13:12;4.30;99.90
25112;DHT22;13092;51.996;4.458;2022-12-07T06:15:40;4.30;99.90
25112;DHT22;13092;51.996;4.458;2022-12-07T06:18:09;4.20;99.90
25112;DHT22;13092;51.996;4.458;2022-12-07T06:20:37;4.20;99.90
25112;DHT22;13092;51.996;4.458;2022-12-07T06:23:05;4.10;99.90
25112;DHT22;13092;51.996;4.458;2022-12-07T06:25:34;4.10;99.90
25112;DHT22;13092;51.996;4.458;2022-12-07T06:28:02;4.30;99.90
25112;DHT22;13092;51.996;4.458;2022-12-07T06:30:32;4.00;99.90
25112;DHT22;13092;51.996;4.458;2022-12-07T06:33:02;4.00;99.90
25112;DHT22;13092;51.996;4.458;2022-12-07T06:35:32;4.00;99.90
25112;DHT22;13092;51.996;4.458;2022-12-07T06:38:00;4.00;99.90
25112;DHT22;13092;51.996;4.458;2022-12-07T06:40:29;4.00;99.90
25112;DHT22;13092;51.996;4.458;2022-12-07T06:42:59;4.00;99.90
25112;DHT22;13092;51.996;4.458;2022-12-07T06:45:27;3.70;99.90
25112;DHT22;13092;51.996;4.458;2022-12-07T06:47:58;3.90;99.90
25112;DHT22;13092;51.996;4.458;2022-12-07T06:50:26;3.90;99.90
25112;DHT22;13092;51.996;4.458;2022-12-07T06:52:55;3.90;99.90
25112;DHT22;13092;51.996;4.458;2022-12-07T06:55:27;4.00;99.90
25112;DHT22;13092;51.996;4.458;2022-12-07T06:58:03;4.10;99.90
25112;DHT22;13092;51.996;4.458;2022-12-07T07:00:32;4.30;99.90
25112;DHT22;13092;51.996;4.458;2022-12-07T07:03:03;4.20;99.90
25112;DHT22;13092;51.996;4.458;2022-12-07T07:05:31;4.30;99.90
25112;DHT22;13092;51.996;4.458;2022-12-07T07:07:59;4.40;99.90
25112;DHT22;13092;51.996;4.458;2022-12-07T07:10:47;4.60;99.90
25112;DHT22;13092;51.996;4.458;2022-12-07T07:13:16;4.50;99.90
25112;DHT22;13092;51.996;4.458;2022-12-07T07:15:44;4.60;99.90
25112;DHT22;13092;51.996;4.458;2022-12-07T07:18:14;4.70;99.90
25112;DHT22;13092;51.996;4.458;2022-12-07T07:20:42;4.60;99.90
25112;DHT22;13092;51.996;4.458;2022-12-07T07:23:10;4.60;99.90
25112;DHT22;13092;51.996;4.458;2022-12-07T07:25:38;4.60;99.90
25112;DHT22;13092;51.996;4.458;2022-12-07T07:28:06;4.50;99.90
25112;DHT22;13092;51.996;4.458;2022-12-07T07:30:37;4.60;99.90
25112;DHT22;13092;51.996;4.458;2022-12-07T07:33:05;4.50;99.90
25112;DHT22;13092;51.996;4.458;2022-12-07T07:35:36;4.80;99.90
25112;DHT22;13092;51.996;4.458;2022-12-07T07:38:06;4.80;99.90
25112;DHT22;13092;51.996;4.458;2022-12-07T07:40:35;5.00;99.90
25112;DHT22;13092;51.996;4.458;2022-12-07T07:43:03;5.30;99.90
25112;DHT22;13092;51.996;4.458;2022-12-07T07:45:32;5.30;99.90
25112;DHT22;13092;51.996;4.458;2022-12-07T07:48:00;5.40;99.90
25112;DHT22;13092;51.996;4.458;2022-12-07T07:50:29;5.50;99.90
25112;DHT22;13092;51.996;4.458;2022-12-07T07:52:58;5.60;99.90
25112;DHT22;13092;51.996;4.458;2022-12-07T07:55:27;5.70;99.90
25112;DHT22;13092;51.996;4.458;2022-12-07T07:57:58;5.80;99.90
25112;DHT22;13092;51.996;4.458;2022-12-07T08:00:26;5.80;99.90
25112;DHT22;13092;51.996;4.458;2022-12-07T08:02:55;5.80;99.90
25112;DHT22;13092;51.996;4.458;2022-12-07T08:05:23;5.80;99.90
25112;DHT22;13092;51.996;4.458;2022-12-07T08:07:52;5.90;99.90
25112;DHT22;13092;51.996;4.458;2022-12-07T08:10:21;6.10;99.90
25112;DHT22;13092;51.996;4.458;2022-12-07T08:12:50;5.90;99.90
25112;DHT22;13092;51.996;4.458;2022-12-07T08:15:37;5.90;99.90
25112;DHT22;13092;51.996;4.458;2022-12-07T08:18:06;5.80;99.90
25112;DHT22;13092;51.996;4.458;2022-12-07T08:20:36;5.70;99.90
25112;DHT22;13092;51.996;4.458;2022-12-07T08:23:05;5.80;99.90
25112;DHT22;13092;51.996;4.458;2022-12-07T08:25:35;5.80;99.90
25112;DHT22;13092;51.996;4.458;2022-12-07T08:28:03;5.80;99.90
25112;DHT22;13092;51.996;4.458;2022-12-07T08:30:32;5.80;99.90
25112;DHT22;13092;51.996;4.458;2022-12-07T08:33:00;5.80;99.90
25112;DHT22;13092;51.996;4.458;2022-12-07T08:35:28;5.80;99.90
25112;DHT22;13092;51.996;4.458;2022-12-07T08:37:57;5.70;99.90
25112;DHT22;13092;51.996;4.458;2022-12-07T08:40:25;5.80;99.90
25112;DHT22;13092;51.996;4.458;2022-12-07T08:42:55;5.60;99.90
25112;DHT22;13092;51.996;4.458;2022-12-07T08:45:23;5.60;99.90
25112;DHT22;13092;51.996;4.458;2022-12-07T08:47:56;5.60;99.90
25112;DHT22;13092;51.996;4.458;2022-12-07T08:50:26;5.50;99.90
25112;DHT22;13092;51.996;4.458;2022-12-07T08:52:57;5.50;99.90
25112;DHT22;13092;51.996;4.458;2022-12-07T08:55:26;5.50;99.90
25112;DHT22;13092;51.996;4.458;2022-12-07T08:57:57;5.40;99.90
25112;DHT22;13092;51.996;4.458;2022-12-07T09:00:25;5.50;99.90
25112;DHT22;13092;51.996;4.458;2022-12-07T09:02:54;5.50;99.90
25112;DHT22;13092;51.996;4.458;2022-12-07T09:05:25;5.40;99.90
25112;DHT22;13092;51.996;4.458;2022-12-07T09:08:03;5.50;99.90
25112;DHT22;13092;51.996;4.458;2022-12-07T09:10:31;5.50;99.90
25112;DHT22;13092;51.996;4.458;2022-12-07T09:13:01;5.60;99.90
25112;DHT22;13092;51.996;4.458;2022-12-07T09:15:30;5.70;99.90
25112;DHT22;13092;51.996;4.458;2022-12-07T09:17:58;5.70;99.90
25112;DHT22;13092;51.996;4.458;2022-12-07T09:20:27;5.80;99.90
25112;DHT22;13092;51.996;4.458;2022-12-07T09:22:56;5.80;99.90
25112;DHT22;13092;51.996;4.458;2022-12-07T09:25:24;5.90;99.90
25112;DHT22;13092;51.996;4.458;2022-12-07T09:27:56;5.90;99.90
25112;DHT22;13092;51.996;4.458;2022-12-07T09:30:26;6.00;99.90
25112;DHT22;13092;51.996;4.458;2022-12-07T09:32:56;6.00;99.90
25112;DHT22;13092;51.996;4.458;2022-12-07T09:35:25;6.20;99.90
25112;DHT22;13092;51.996;4.458;2022-12-07T09:37:53;6.00;99.90
25112;DHT22;13092;51.996;4.458;2022-12-07T09:40:24;6.10;99.90
25112;DHT22;13092;51.996;4.458;2022-12-07T09:42:53;6.00;99.90
25112;DHT22;13092;51.996;4.458;2022-12-07T09:45:26;6.10;99.90
25112;DHT22;13092;51.996;4.458;2022-12-07T09:47:57;6.10;99.90
25112;DHT22;13092;51.996;4.458;2022-12-07T09:50:28;6.20;99.90
25112;DHT22;13092;51.996;4.458;2022-12-07T09:53:07;6.20;99.90
25112;DHT22;13092;51.996;4.458;2022-12-07T09:55:36;6.30;99.90
25112;DHT22;13092;51.996;4.458;2022-12-07T09:58:06;6.30;99.90
25112;DHT22;13092;51.996;4.458;2022-12-07T10:00:35;6.40;99.90
25112;DHT22;13092;51.996;4.458;2022-12-07T10:03:04;6.40;99.90
25112;DHT22;13092;51.996;4.458;2022-12-07T10:05:35;6.50;99.90
25112;DHT22;13092;51.996;4.458;2022-12-07T10:08:05;6.60;99.90
25112;DHT22;13092;51.996;4.458;2022-12-07T10:10:35;6.60;99.90
25112;DHT22;13092;51.996;4.458;2022-12-07T10:13:07;6.70;99.90
25112;DHT22;13092;51.996;4.458;2022-12-07T10:15:44;6.70;99.90
25112;DHT22;13092;51.996;4.458;2022-12-07T10:18:20;6.70;99.90
25112;DHT22;13092;51.996;4.458;2022-12-07T10:20:49;6.80;99.90
25112;DHT22;13092;51.996;4.458;2022-12-07T10:23:18;6.90;99.90
25112;DHT22;13092;51.996;4.458;2022-12-07T10:25:46;7.00;99.90
25112;DHT22;13092;51.996;4.458;2022-12-07T10:28:17;7.00;99.90
25112;DHT22;13092;51.996;4.458;2022-12-07T10:30:56;7.30;99.90
25112;DHT22;13092;51.996;4.458;2022-12-07T10:33:35;7.20;99.90
25112;DHT22;13092;51.996;4.458;2022-12-07T10:36:20;7.20;99.90
25112;DHT22;13092;51.996;4.458;2022-12-07T10:38:51;7.20;99.90
25112;DHT22;13092;51.996;4.458;2022-12-07T10:41:21;7.20;99.90
25112;DHT22;13092;51.996;4.458;2022-12-07T10:43:51;7.20;99.90
25112;DHT22;13092;51.996;4.458;2022-12-07T10:49:46;7.40;99.90
25112;DHT22;13092;51.996;4.458;2022-12-07T10:52:25;7.50;99.90
25112;DHT22;13092;51.996;4.458;2022-12-07T10:55:08;7.60;99.90
25112;DHT22;13092;51.996;4.458;2022-12-07T10:57:49;7.60;99.90
25112;DHT22;13092;51.996;4.458;2022-12-07T11:00:23;7.70;99.90
25112;DHT22;13092;51.996;4.458;2022-12-07T11:03:16;7.70;99.90
25112;DHT22;13092;51.996;4.458;2022-12-07T11:05:52;7.80;99.90
25112;DHT22;13092;51.996;4.458;2022-12-07T11:08:39;7.70;99.90
25112;DHT22;13092;51.996;4.458;2022-12-07T11:11:14;7.80;99.90
25112;DHT22;13092;51.996;4.458;2022-12-07T11:13:50;7.90;99.90
25112;DHT22;13092;51.996;4.458;2022-12-07T11:16:42;8.00;99.90
25112;DHT22;13092;51.996;4.458;2022-12-07T11:19:28;8.00;99.90
25112;DHT22;13092;51.996;4.458;2022-12-07T11:22:08;8.10;99.90
25112;DHT22;13092;51.996;4.458;2022-12-07T11:24:44;8.20;99.90
25112;DHT22;13092;51.996;4.458;2022-12-07T11:27:22;8.20;99.90
25112;DHT22;13092;51.996;4.458;2022-12-07T11:30:02;8.20;99.90
25112;DHT22;13092;51.996;4.458;2022-12-07T11:32:47;8.30;99.90
25112;DHT22;13092;51.996;4.458;2022-12-07T11:35:25;8.20;99.90
25112;DHT22;13092;51.996;4.458;2022-12-07T11:38:07;8.30;99.90
25112;DHT22;13092;51.996;4.458;2022-12-07T11:40:37;8.20;99.90
25112;DHT22;13092;51.996;4.458;2022-12-07T11:43:17;7.60;99.90
25112;DHT22;13092;51.996;4.458;2022-12-07T11:45:51;7.00;99.90
25112;DHT22;13092;51.996;4.458;2022-12-07T11:48:28;6.70;99.90
25112;DHT22;13092;51.996;4.458;2022-12-07T11:51:01;6.60;99.90
25112;DHT22;13092;51.996;4.458;2022-12-07T11:53:37;6.50;99.90
25112;DHT22;13092;51.996;4.458;2022-12-07T11:56:11;6.50;99.90
25112;DHT22;13092;51.996;4.458;2022-12-07T11:58:48;6.60;99.90
25112;DHT22;13092;51.996;4.458;2022-12-07T12:01:31;6.70;99.90
25112;DHT22;13092;51.996;4.458;2022-12-07T12:04:07;6.90;99.90
25112;DHT22;13092;51.996;4.458;2022-12-07T12:06:44;7.00;99.90
25112;DHT22;13092;51.996;4.458;2022-12-07T12:09:18;7.10;99.90
25112;DHT22;13092;51.996;4.458;2022-12-07T12:12:25;7.10;99.90
25112;DHT22;13092;51.996;4.458;2022-12-07T12:15:42;7.20;99.90
25112;DHT22;13092;51.996;4.458;2022-12-07T12:22:15;7.50;99.90
25112;DHT22;13092;51.996;4.458;2022-12-07T12:32:21;7.60;99.90
25112;DHT22;13092;51.996;4.458;2022-12-07T12:35:22;7.70;99.90
25112;DHT22;13092;51.996;4.458;2022-12-07T12:37:54;7.70;99.90
25112;DHT22;13092;51.996;4.458;2022-12-07T12:40:42;7.70;99.90
25112;DHT22;13092;51.996;4.458;2022-12-07T12:43:42;7.80;99.90
25112;DHT22;13092;51.996;4.458;2022-12-07T12:46:38;7.90;99.90
25112;DHT22;13092;51.996;4.458;2022-12-07T12:49:39;8.00;99.90
25112;DHT22;13092;51.996;4.458;2022-12-07T12:58:34;8.00;99.90
25112;DHT22;13092;51.996;4.458;2022-12-07T13:04:34;8.20;99.90
25112;DHT22;13092;51.996;4.458;2022-12-07T13:07:12;8.20;99.90
25112;DHT22;13092;51.996;4.458;2022-12-07T13:09:43;8.20;99.90
25112;DHT22;13092;51.996;4.458;2022-12-07T13:12:14;8.20;99.90
25112;DHT22;13092;51.996;4.458;2022-12-07T13:14:53;8.00;99.90
25112;DHT22;13092;51.996;4.458;2022-12-07T13:17:56;8.00;99.90
25112;DHT22;13092;51.996;4.458;2022-12-07T13:20:47;7.80;99.90
25112;DHT22;13092;51.996;4.458;2022-12-07T13:23:22;7.70;99.90
25112;DHT22;13092;51.996;4.458;2022-12-07T13:26:09;7.60;99.90
25112;DHT22;13092;51.996;4.458;2022-12-07T13:28:45;7.60;99.90
25112;DHT22;13092;51.996;4.458;2022-12-07T13:31:20;7.50;99.90
25112;DHT22;13092;51.996;4.458;2022-12-07T13:33:50;7.50;99.90
25112;DHT22;13092;51.996;4.458;2022-12-07T13:36:22;7.50;99.90
25112;DHT22;13092;51.996;4.458;2022-12-07T13:38:57;7.50;99.90
25112;DHT22;13092;51.996;4.458;2022-12-07T13:41:25;7.50;99.90
25112;DHT22;13092;51.996;4.458;2022-12-07T13:44:00;7.60;99.90
25112;DHT22;13092;51.996;4.458;2022-12-07T13:46:46;7.60;99.90
25112;DHT22;13092;51.996;4.458;2022-12-07T13:49:18;7.70;99.90
25112;DHT22;13092;51.996;4.458;2022-12-07T13:51:48;7.90;99.90
25112;DHT22;13092;51.996;4.458;2022-12-07T13:54:18;7.70;99.90
25112;DHT22;13092;51.996;4.458;2022-12-07T13:56:49;7.80;99.90
25112;DHT22;13092;51.996;4.458;2022-12-07T13:59:20;7.80;99.90
25112;DHT22;13092;51.996;4.458;2022-12-07T14:01:53;7.90;99.90
25112;DHT22;13092;51.996;4.458;2022-12-07T14:04:32;7.90;99.90
25112;DHT22;13092;51.996;4.458;2022-12-07T14:09:54;7.90;99.90
25112;DHT22;13092;51.996;4.458;2022-12-07T14:12:23;7.90;99.90
25112;DHT22;13092;51.996;4.458;2022-12-07T14:14:52;7.90;99.90
25112;DHT22;13092;51.996;4.458;2022-12-07T14:17:23;7.90;99.90
25112;DHT22;13092;51.996;4.458;2022-12-07T14:19:53;7.90;99.90
25112;DHT22;13092;51.996;4.458;2022-12-07T14:22:28;7.90;99.90
25112;DHT22;13092;51.996;4.458;2022-12-07T14:25:23;8.00;99.90
25112;DHT22;13092;51.996;4.458;2022-12-07T14:27:54;8.00;99.90
25112;DHT22;13092;51.996;4.458;2022-12-07T14:30:26;8.00;99.90
25112;DHT22;13092;51.996;4.458;2022-12-07T14:32:58;8.10;99.90
25112;DHT22;13092;51.996;4.458;2022-12-07T14:35:27;8.10;99.90
25112;DHT22;13092;51.996;4.458;2022-12-07T14:37:56;8.10;99.90
25112;DHT22;13092;51.996;4.458;2022-12-07T14:40:27;8.20;99.90
25112;DHT22;13092;51.996;4.458;2022-12-07T14:42:59;8.30;99.90
25112;DHT22;13092;51.996;4.458;2022-12-07T14:45:29;8.20;99.90
25112;DHT22;13092;51.996;4.458;2022-12-07T14:47:57;8.10;99.90
25112;DHT22;13092;51.996;4.458;2022-12-07T14:50:49;8.30;99.90
25112;DHT22;13092;51.996;4.458;2022-12-07T14:53:41;8.30;99.90
25112;DHT22;13092;51.996;4.458;2022-12-07T14:56:17;8.20;99.90
25112;DHT22;13092;51.996;4.458;2022-12-07T14:58:45;8.20;99.90
25112;DHT22;13092;51.996;4.458;2022-12-07T15:01:14;8.20;99.90
25112;DHT22;13092;51.996;4.458;2022-12-07T15:03:43;8.10;99.90
25112;DHT22;13092;51.996;4.458;2022-12-07T15:06:15;7.90;99.90
25112;DHT22;13092;51.996;4.458;2022-12-07T15:08:43;7.80;99.90
25112;DHT22;13092;51.996;4.458;2022-12-07T15:11:12;7.70;99.90
25112;DHT22;13092;51.996;4.458;2022-12-07T15:13:42;7.80;99.90
25112;DHT22;13092;51.996;4.458;2022-12-07T15:16:28;7.80;99.90
25112;DHT22;13092;51.996;4.458;2022-12-07T15:19:18;7.80;99.90
25112;DHT22;13092;51.996;4.458;2022-12-07T15:21:55;7.80;99.90
25112;DHT22;13092;51.996;4.458;2022-12-07T15:24:25;7.80;99.90
25112;DHT22;13092;51.996;4.458;2022-12-07T15:26:53;7.80;99.90
25112;DHT22;13092;51.996;4.458;2022-12-07T15:29:23;7.70;99.90
25112;DHT22;13092;51.996;4.458;2022-12-07T15:31:51;7.70;99.90
25112;DHT22;13092;51.996;4.458;2022-12-07T15:34:23;7.60;99.90
25112;DHT22;13092;51.996;4.458;2022-12-07T15:36:51;7.70;99.90
25112;DHT22;13092;51.996;4.458;2022-12-07T15:39:19;7.70;99.90
25112;DHT22;13092;51.996;4.458;2022-12-07T15:41:48;7.70;99.90
25112;DHT22;13092;51.996;4.458;2022-12-07T15:44:16;7.60;99.90
25112;DHT22;13092;51.996;4.458;2022-12-07T15:47:04;7.60;99.90
25112;DHT22;13092;51.996;4.458;2022-12-07T15:49:32;7.40;99.90
25112;DHT22;13092;51.996;4.458;2022-12-07T15:52:00;7.40;99.90
25112;DHT22;13092;51.996;4.458;2022-12-07T15:54:29;7.40;99.90
25112;DHT22;13092;51.996;4.458;2022-12-07T15:56:58;7.30;99.90
25112;DHT22;13092;51.996;4.458;2022-12-07T15:59:27;7.20;99.90
25112;DHT22;13092;51.996;4.458;2022-12-07T16:01:56;7.20;99.90
25112;DHT22;13092;51.996;4.458;2022-12-07T16:04:26;7.20;99.90
25112;DHT22;13092;51.996;4.458;2022-12-07T16:06:54;7.20;99.90
25112;DHT22;13092;51.996;4.458;2022-12-07T16:09:23;7.30;99.90
25112;DHT22;13092;51.996;4.458;2022-12-07T16:11:52;7.20;99.90
25112;DHT22;13092;51.996;4.458;2022-12-07T16:14:20;7.30;99.90
25112;DHT22;13092;51.996;4.458;2022-12-07T16:16:48;7.30;99.90
25112;DHT22;13092;51.996;4.458;2022-12-07T16:19:16;7.30;99.90
25112;DHT22;13092;51.996;4.458;2022-12-07T16:21:46;7.30;99.90
25112;DHT22;13092;51.996;4.458;2022-12-07T16:24:14;7.30;99.90
25112;DHT22;13092;51.996;4.458;2022-12-07T16:26:43;7.30;99.90
25112;DHT22;13092;51.996;4.458;2022-12-07T16:29:16;7.10;99.90
25112;DHT22;13092;51.996;4.458;2022-12-07T16:31:45;7.20;99.90
25112;DHT22;13092;51.996;4.458;2022-12-07T16:34:14;7.40;99.90
25112;DHT22;13092;51.996;4.458;2022-12-07T16:36:46;7.20;99.90
25112;DHT22;13092;51.996;4.458;2022-12-07T16:39:32;7.20;99.90
25112;DHT22;13092;51.996;4.458;2022-12-07T16:42:01;7.20;99.90
25112;DHT22;13092;51.996;4.458;2022-12-07T16:44:29;7.20;99.90
25112;DHT22;13092;51.996;4.458;2022-12-07T16:46:58;7.10;99.90
25112;DHT22;13092;51.996;4.458;2022-12-07T16:49:27;7.10;99.90
25112;DHT22;13092;51.996;4.458;2022-12-07T16:51:57;7.00;99.90